Aérodrome :
LOGIN :

S'inscrire | Disclaimer

   EN    FR    IT 

 










Légende :    VFR   VFR Marginal   IFR   IFR Intensif   IFR Très Intensif
Visi : 
Plafond : 
>= 8 km
>= 3000ft
5 à 8 km
1000 à 3000 ft
1500m à 5 km
500 à 1000 ft
800 à 1500m
200 à 500 ft
< 800m
< 200 ft
Symboles :   Orages  Brouillard  Fortes neiges  Fortes précipitations  Vent > 20 kt
SIGMETs :   Divers  Orages  Givrage  Turbulence  Onde Orograph.  Cendres Volcan.






- Altitude de l'aérodrome : 124 ft
- Code IATA : RNS


LFRN - Rennes

DERNIER METAR :
  • 211500Z AUTO VRB03KT CAVOK 15/07 Q1020 TEMPO SHRA

METARs EXPIRÉS :
  • 211430Z AUTO 35003KT 310V050 CAVOK 16/07 Q1020 TEMPO SHRA
  • 211400Z AUTO 02004KT 340V050 CAVOK 15/07 Q1020 TEMPO SHRA
  • 211330Z AUTO 02005KT CAVOK 15/07 Q1020 TEMPO SHRA
  • 211300Z AUTO 03006KT 350V050 9999 SCT033 OVC056 16/08 Q1020 TEMPO SHRA
  • 211230Z AUTO VRB03KT 9999 BKN032 BKN060 16/09 Q1020 TEMPO SHRA

TAF TAF LFRN
Valide du 21 à 12h jusqu'au 22 à 12h UTC


211100Z 2112/2212 VRB04KT 9999 SCT030
PROB30
TEMPO 2114/2118 5000 SHRA
BECMG 2120/2123 3000 BR
BECMG 2123/2202 0300 FG VV///
BECMG 2210/2212 6000 NSW SCT010
ATIS : +33 2 99 67 72 50



MET'MAP, la Météo Aéronautique d'un coup d'oeil ! - Copyright ORBIFLY Décembre 2007 - Disclaimer

ORBIFLY MET'MAP TEAM :

Programmation & Développement : Alexandra Zaïnal
Conception & Développement : Baudouin d'Aumeries
Co-Programmation & Développement : Marc-Olivier Méhu
Soutien technique & logistique : Manuel Goepfert

Contact : metmap@orbifly.com




SOURCES & CREDITS :

   NOAA